sensor_id;sensor_type;location;lat;lon;timestamp;temperature;humidity
9885;DHT22;4981;50.966;4.842;2023-09-19T00:09:35;15.40;1.00
9885;DHT22;4981;50.966;4.842;2023-09-19T00:12:04;15.40;1.00
9885;DHT22;4981;50.966;4.842;2023-09-19T00:14:31;15.40;1.00
9885;DHT22;4981;50.966;4.842;2023-09-19T00:17:01;15.30;1.00
9885;DHT22;4981;50.966;4.842;2023-09-19T00:19:31;15.30;1.00
9885;DHT22;4981;50.966;4.842;2023-09-19T00:21:59;15.30;1.00
9885;DHT22;4981;50.966;4.842;2023-09-19T00:24:26;15.20;1.00
9885;DHT22;4981;50.966;4.842;2023-09-19T00:26:55;15.30;1.00
9885;DHT22;4981;50.966;4.842;2023-09-19T00:29:22;15.40;1.00
9885;DHT22;4981;50.966;4.842;2023-09-19T00:31:49;15.40;1.00
9885;DHT22;4981;50.966;4.842;2023-09-19T00:34:16;15.30;1.00
9885;DHT22;4981;50.966;4.842;2023-09-19T00:36:43;15.40;1.00
9885;DHT22;4981;50.966;4.842;2023-09-19T00:39:10;15.40;1.00
9885;DHT22;4981;50.966;4.842;2023-09-19T00:41:37;15.40;1.00
9885;DHT22;4981;50.966;4.842;2023-09-19T00:44:07;15.30;1.00
9885;DHT22;4981;50.966;4.842;2023-09-19T00:46:36;15.30;1.00
9885;DHT22;4981;50.966;4.842;2023-09-19T00:49:03;15.00;1.00
9885;DHT22;4981;50.966;4.842;2023-09-19T00:51:30;15.30;1.00
9885;DHT22;4981;50.966;4.842;2023-09-19T00:53:57;15.40;1.00
9885;DHT22;4981;50.966;4.842;2023-09-19T00:56:25;15.30;1.00
9885;DHT22;4981;50.966;4.842;2023-09-19T00:58:52;15.20;1.00
9885;DHT22;4981;50.966;4.842;2023-09-19T01:01:21;15.30;1.00
9885;DHT22;4981;50.966;4.842;2023-09-19T01:03:48;15.20;1.00
9885;DHT22;4981;50.966;4.842;2023-09-19T01:06:16;15.20;1.00
9885;DHT22;4981;50.966;4.842;2023-09-19T01:08:43;15.20;1.00
9885;DHT22;4981;50.966;4.842;2023-09-19T01:11:15;15.20;1.00
9885;DHT22;4981;50.966;4.842;2023-09-19T01:13:51;15.20;1.00
9885;DHT22;4981;50.966;4.842;2023-09-19T01:16:32;15.10;1.00
9885;DHT22;4981;50.966;4.842;2023-09-19T01:21:57;15.20;1.00
9885;DHT22;4981;50.966;4.842;2023-09-19T01:27:36;15.20;1.00
9885;DHT22;4981;50.966;4.842;2023-09-19T01:30:14;15.10;1.00
9885;DHT22;4981;50.966;4.842;2023-09-19T01:32:42;15.10;1.00
9885;DHT22;4981;50.966;4.842;2023-09-19T01:35:11;15.00;1.00
9885;DHT22;4981;50.966;4.842;2023-09-19T01:37:39;15.00;1.00
9885;DHT22;4981;50.966;4.842;2023-09-19T01:40:11;15.10;1.00
9885;DHT22;4981;50.966;4.842;2023-09-19T01:42:45;15.20;1.00
9885;DHT22;4981;50.966;4.842;2023-09-19T01:45:24;15.00;1.00
9885;DHT22;4981;50.966;4.842;2023-09-19T01:47:55;15.10;1.00
9885;DHT22;4981;50.966;4.842;2023-09-19T01:50:32;14.90;1.00
9885;DHT22;4981;50.966;4.842;2023-09-19T01:53:05;15.00;1.00
9885;DHT22;4981;50.966;4.842;2023-09-19T01:55:37;14.90;1.00
9885;DHT22;4981;50.966;4.842;2023-09-19T01:58:15;14.90;1.00
9885;DHT22;4981;50.966;4.842;2023-09-19T02:00:45;14.90;1.00
9885;DHT22;4981;50.966;4.842;2023-09-19T02:03:14;14.90;1.00
9885;DHT22;4981;50.966;4.842;2023-09-19T02:05:41;14.80;1.00
9885;DHT22;4981;50.966;4.842;2023-09-19T02:08:16;14.90;1.00
9885;DHT22;4981;50.966;4.842;2023-09-19T02:10:43;14.80;1.00
9885;DHT22;4981;50.966;4.842;2023-09-19T02:13:15;14.80;1.00
9885;DHT22;4981;50.966;4.842;2023-09-19T02:15:44;14.80;1.00
9885;DHT22;4981;50.966;4.842;2023-09-19T02:18:11;14.80;1.00
9885;DHT22;4981;50.966;4.842;2023-09-19T02:20:38;14.90;1.00
9885;DHT22;4981;50.966;4.842;2023-09-19T02:23:05;14.80;1.00
9885;DHT22;4981;50.966;4.842;2023-09-19T02:25:33;14.70;1.00
9885;DHT22;4981;50.966;4.842;2023-09-19T02:28:00;14.70;1.00
9885;DHT22;4981;50.966;4.842;2023-09-19T02:30:28;14.70;1.00
9885;DHT22;4981;50.966;4.842;2023-09-19T02:32:57;14.70;1.00
9885;DHT22;4981;50.966;4.842;2023-09-19T02:35:23;14.80;1.00
9885;DHT22;4981;50.966;4.842;2023-09-19T02:37:51;14.80;1.00
9885;DHT22;4981;50.966;4.842;2023-09-19T02:40:18;14.90;1.00
9885;DHT22;4981;50.966;4.842;2023-09-19T02:42:46;14.90;1.00
9885;DHT22;4981;50.966;4.842;2023-09-19T02:45:15;14.80;1.00
9885;DHT22;4981;50.966;4.842;2023-09-19T02:47:43;14.80;1.00
9885;DHT22;4981;50.966;4.842;2023-09-19T02:50:11;14.80;1.00
9885;DHT22;4981;50.966;4.842;2023-09-19T02:52:41;14.90;1.00
9885;DHT22;4981;50.966;4.842;2023-09-19T02:55:09;14.80;1.00
9885;DHT22;4981;50.966;4.842;2023-09-19T02:57:36;15.00;1.00
9885;DHT22;4981;50.966;4.842;2023-09-19T03:00:07;15.00;1.00
9885;DHT22;4981;50.966;4.842;2023-09-19T03:02:36;14.90;1.00
9885;DHT22;4981;50.966;4.842;2023-09-19T03:05:04;15.10;1.00
9885;DHT22;4981;50.966;4.842;2023-09-19T03:07:33;15.00;1.00
9885;DHT22;4981;50.966;4.842;2023-09-19T03:10:00;15.00;1.00
9885;DHT22;4981;50.966;4.842;2023-09-19T03:12:27;15.00;1.00
9885;DHT22;4981;50.966;4.842;2023-09-19T03:14:54;15.00;1.00
9885;DHT22;4981;50.966;4.842;2023-09-19T03:17:21;15.00;1.00
9885;DHT22;4981;50.966;4.842;2023-09-19T03:19:48;15.20;1.00
9885;DHT22;4981;50.966;4.842;2023-09-19T03:22:15;15.10;1.00
9885;DHT22;4981;50.966;4.842;2023-09-19T03:24:44;15.20;1.00
9885;DHT22;4981;50.966;4.842;2023-09-19T03:27:12;15.30;1.00
9885;DHT22;4981;50.966;4.842;2023-09-19T03:29:39;15.20;1.00
9885;DHT22;4981;50.966;4.842;2023-09-19T03:32:06;15.50;1.00
9885;DHT22;4981;50.966;4.842;2023-09-19T03:34:36;15.50;1.00
9885;DHT22;4981;50.966;4.842;2023-09-19T03:37:04;15.20;1.00
9885;DHT22;4981;50.966;4.842;2023-09-19T03:39:32;15.00;1.00
9885;DHT22;4981;50.966;4.842;2023-09-19T03:42:00;15.00;1.00
9885;DHT22;4981;50.966;4.842;2023-09-19T03:44:28;15.00;1.00
9885;DHT22;4981;50.966;4.842;2023-09-19T03:46:55;15.10;1.00
9885;DHT22;4981;50.966;4.842;2023-09-19T03:49:22;14.90;1.00
9885;DHT22;4981;50.966;4.842;2023-09-19T03:51:49;14.80;1.00
9885;DHT22;4981;50.966;4.842;2023-09-19T03:54:16;14.90;1.00
9885;DHT22;4981;50.966;4.842;2023-09-19T03:56:45;15.00;1.00
9885;DHT22;4981;50.966;4.842;2023-09-19T03:59:13;15.00;1.00
9885;DHT22;4981;50.966;4.842;2023-09-19T04:01:40;15.10;1.00
9885;DHT22;4981;50.966;4.842;2023-09-19T04:04:07;14.90;1.00
9885;DHT22;4981;50.966;4.842;2023-09-19T04:06:34;15.00;1.00
9885;DHT22;4981;50.966;4.842;2023-09-19T04:09:02;14.90;1.00
9885;DHT22;4981;50.966;4.842;2023-09-19T04:11:29;14.90;1.00
9885;DHT22;4981;50.966;4.842;2023-09-19T04:13:57;14.80;1.00
9885;DHT22;4981;50.966;4.842;2023-09-19T04:16:25;14.80;1.00
9885;DHT22;4981;50.966;4.842;2023-09-19T04:18:52;14.90;1.00
9885;DHT22;4981;50.966;4.842;2023-09-19T04:21:19;14.80;1.00
9885;DHT22;4981;50.966;4.842;2023-09-19T04:23:46;14.70;1.00
9885;DHT22;4981;50.966;4.842;2023-09-19T04:26:13;14.90;1.00
9885;DHT22;4981;50.966;4.842;2023-09-19T04:28:41;14.80;1.00
9885;DHT22;4981;50.966;4.842;2023-09-19T04:31:09;14.70;1.00
9885;DHT22;4981;50.966;4.842;2023-09-19T04:33:38;14.70;1.00
9885;DHT22;4981;50.966;4.842;2023-09-19T04:36:05;14.80;1.00
9885;DHT22;4981;50.966;4.842;2023-09-19T04:38:33;14.80;1.00
9885;DHT22;4981;50.966;4.842;2023-09-19T04:41:00;14.70;1.00
9885;DHT22;4981;50.966;4.842;2023-09-19T04:43:27;14.90;1.00
9885;DHT22;4981;50.966;4.842;2023-09-19T04:45:54;14.80;1.00
9885;DHT22;4981;50.966;4.842;2023-09-19T04:48:22;14.80;1.00
9885;DHT22;4981;50.966;4.842;2023-09-19T04:50:52;14.70;1.00
9885;DHT22;4981;50.966;4.842;2023-09-19T04:53:19;14.50;1.00
9885;DHT22;4981;50.966;4.842;2023-09-19T04:55:50;14.90;1.00
9885;DHT22;4981;50.966;4.842;2023-09-19T04:58:18;14.70;1.00
9885;DHT22;4981;50.966;4.842;2023-09-19T05:00:46;14.60;1.00
9885;DHT22;4981;50.966;4.842;2023-09-19T05:03:13;14.50;1.00
9885;DHT22;4981;50.966;4.842;2023-09-19T05:05:40;14.50;1.00
9885;DHT22;4981;50.966;4.842;2023-09-19T05:08:09;14.40;1.00
9885;DHT22;4981;50.966;4.842;2023-09-19T05:10:36;14.50;1.00
9885;DHT22;4981;50.966;4.842;2023-09-19T05:13:04;15.00;1.00
9885;DHT22;4981;50.966;4.842;2023-09-19T05:15:33;14.30;1.00
9885;DHT22;4981;50.966;4.842;2023-09-19T05:18:01;14.40;1.00
9885;DHT22;4981;50.966;4.842;2023-09-19T05:20:29;14.40;1.00
9885;DHT22;4981;50.966;4.842;2023-09-19T05:22:59;14.40;1.00
9885;DHT22;4981;50.966;4.842;2023-09-19T05:25:29;14.30;1.00
9885;DHT22;4981;50.966;4.842;2023-09-19T05:27:58;14.30;1.00
9885;DHT22;4981;50.966;4.842;2023-09-19T05:30:26;14.40;1.00
9885;DHT22;4981;50.966;4.842;2023-09-19T05:32:54;14.40;1.00
9885;DHT22;4981;50.966;4.842;2023-09-19T05:35:22;14.30;1.00
9885;DHT22;4981;50.966;4.842;2023-09-19T05:37:51;14.40;1.00
9885;DHT22;4981;50.966;4.842;2023-09-19T05:40:18;14.40;1.00
9885;DHT22;4981;50.966;4.842;2023-09-19T05:42:47;14.30;1.00
9885;DHT22;4981;50.966;4.842;2023-09-19T05:45:16;14.30;1.00
9885;DHT22;4981;50.966;4.842;2023-09-19T05:47:47;14.30;1.00
9885;DHT22;4981;50.966;4.842;2023-09-19T05:50:16;14.30;1.00
9885;DHT22;4981;50.966;4.842;2023-09-19T05:52:47;14.40;1.00
9885;DHT22;4981;50.966;4.842;2023-09-19T05:55:17;14.40;1.00
9885;DHT22;4981;50.966;4.842;2023-09-19T05:57:50;14.60;1.00
9885;DHT22;4981;50.966;4.842;2023-09-19T06:00:18;14.40;1.00
9885;DHT22;4981;50.966;4.842;2023-09-19T06:02:50;14.60;1.00
9885;DHT22;4981;50.966;4.842;2023-09-19T06:05:17;14.40;1.00
9885;DHT22;4981;50.966;4.842;2023-09-19T06:07:45;14.50;1.00
9885;DHT22;4981;50.966;4.842;2023-09-19T06:10:13;14.60;1.00
9885;DHT22;4981;50.966;4.842;2023-09-19T06:12:43;14.70;1.00
9885;DHT22;4981;50.966;4.842;2023-09-19T06:15:12;14.50;1.00
9885;DHT22;4981;50.966;4.842;2023-09-19T06:17:41;14.80;1.00
9885;DHT22;4981;50.966;4.842;2023-09-19T06:20:08;14.50;1.00
9885;DHT22;4981;50.966;4.842;2023-09-19T06:22:41;14.60;1.00
9885;DHT22;4981;50.966;4.842;2023-09-19T06:25:08;14.90;1.00
9885;DHT22;4981;50.966;4.842;2023-09-19T06:27:38;14.80;1.00
9885;DHT22;4981;50.966;4.842;2023-09-19T06:30:08;14.60;1.00
9885;DHT22;4981;50.966;4.842;2023-09-19T06:32:38;15.10;1.00
9885;DHT22;4981;50.966;4.842;2023-09-19T06:35:06;14.90;1.00
9885;DHT22;4981;50.966;4.842;2023-09-19T06:37:34;14.90;1.00
9885;DHT22;4981;50.966;4.842;2023-09-19T06:40:02;14.60;1.00
9885;DHT22;4981;50.966;4.842;2023-09-19T06:42:31;14.90;1.00
9885;DHT22;4981;50.966;4.842;2023-09-19T06:44:58;14.80;1.00
9885;DHT22;4981;50.966;4.842;2023-09-19T06:47:25;14.70;1.00
9885;DHT22;4981;50.966;4.842;2023-09-19T06:49:53;14.80;1.00
9885;DHT22;4981;50.966;4.842;2023-09-19T06:52:20;14.80;1.00
9885;DHT22;4981;50.966;4.842;2023-09-19T06:54:47;14.80;1.00
9885;DHT22;4981;50.966;4.842;2023-09-19T06:57:16;15.00;1.00
9885;DHT22;4981;50.966;4.842;2023-09-19T06:59:42;15.00;1.00
9885;DHT22;4981;50.966;4.842;2023-09-19T07:02:10;15.00;1.00
9885;DHT22;4981;50.966;4.842;2023-09-19T07:04:37;15.20;1.00
9885;DHT22;4981;50.966;4.842;2023-09-19T07:07:05;15.50;1.00
9885;DHT22;4981;50.966;4.842;2023-09-19T07:09:34;15.30;1.00
9885;DHT22;4981;50.966;4.842;2023-09-19T07:12:01;15.10;1.00
9885;DHT22;4981;50.966;4.842;2023-09-19T07:14:28;15.00;1.00
9885;DHT22;4981;50.966;4.842;2023-09-19T07:16:56;15.10;1.00
9885;DHT22;4981;50.966;4.842;2023-09-19T07:19:25;15.00;1.00
9885;DHT22;4981;50.966;4.842;2023-09-19T07:21:54;15.20;1.00
9885;DHT22;4981;50.966;4.842;2023-09-19T07:24:22;15.30;1.00
9885;DHT22;4981;50.966;4.842;2023-09-19T07:26:49;15.50;1.00
9885;DHT22;4981;50.966;4.842;2023-09-19T07:29:16;15.50;1.00
9885;DHT22;4981;50.966;4.842;2023-09-19T07:31:43;15.40;1.00
9885;DHT22;4981;50.966;4.842;2023-09-19T07:34:11;15.40;1.00
9885;DHT22;4981;50.966;4.842;2023-09-19T07:36:39;15.50;1.00
9885;DHT22;4981;50.966;4.842;2023-09-19T07:39:07;15.40;1.00
9885;DHT22;4981;50.966;4.842;2023-09-19T07:41:35;15.60;1.00
9885;DHT22;4981;50.966;4.842;2023-09-19T07:44:03;15.50;1.00
9885;DHT22;4981;50.966;4.842;2023-09-19T07:46:30;15.40;1.00
9885;DHT22;4981;50.966;4.842;2023-09-19T07:48:57;15.70;1.00
9885;DHT22;4981;50.966;4.842;2023-09-19T07:51:24;15.80;1.00
9885;DHT22;4981;50.966;4.842;2023-09-19T07:53:52;15.90;1.00
9885;DHT22;4981;50.966;4.842;2023-09-19T07:56:20;15.90;1.00
9885;DHT22;4981;50.966;4.842;2023-09-19T07:58:49;15.70;1.00
9885;DHT22;4981;50.966;4.842;2023-09-19T08:01:17;15.70;1.00
9885;DHT22;4981;50.966;4.842;2023-09-19T08:03:44;16.10;1.00
9885;DHT22;4981;50.966;4.842;2023-09-19T08:06:11;16.20;1.00
9885;DHT22;4981;50.966;4.842;2023-09-19T08:08:38;15.80;1.00
9885;DHT22;4981;50.966;4.842;2023-09-19T08:11:06;15.90;1.00
9885;DHT22;4981;50.966;4.842;2023-09-19T08:13:37;15.20;1.00
9885;DHT22;4981;50.966;4.842;2023-09-19T08:16:08;16.00;1.00
9885;DHT22;4981;50.966;4.842;2023-09-19T08:18:35;16.20;1.00
9885;DHT22;4981;50.966;4.842;2023-09-19T08:21:02;15.90;1.00
9885;DHT22;4981;50.966;4.842;2023-09-19T08:23:29;16.40;1.00
9885;DHT22;4981;50.966;4.842;2023-09-19T08:25:58;16.50;1.00
9885;DHT22;4981;50.966;4.842;2023-09-19T08:28:28;16.30;1.00
9885;DHT22;4981;50.966;4.842;2023-09-19T08:30:55;16.40;1.00
9885;DHT22;4981;50.966;4.842;2023-09-19T08:33:25;16.30;1.00
9885;DHT22;4981;50.966;4.842;2023-09-19T08:35:52;16.40;1.00
9885;DHT22;4981;50.966;4.842;2023-09-19T08:38:18;16.60;1.00
9885;DHT22;4981;50.966;4.842;2023-09-19T08:40:45;16.40;1.00
9885;DHT22;4981;50.966;4.842;2023-09-19T08:43:13;16.70;1.00
9885;DHT22;4981;50.966;4.842;2023-09-19T08:45:40;16.80;1.00
9885;DHT22;4981;50.966;4.842;2023-09-19T08:48:28;16.50;1.00
9885;DHT22;4981;50.966;4.842;2023-09-19T08:50:57;16.50;1.00
9885;DHT22;4981;50.966;4.842;2023-09-19T08:53:50;16.50;1.00
9885;DHT22;4981;50.966;4.842;2023-09-19T08:56:18;16.70;1.00
9885;DHT22;4981;50.966;4.842;2023-09-19T08:58:50;17.00;1.00
9885;DHT22;4981;50.966;4.842;2023-09-19T09:01:19;16.90;1.00
9885;DHT22;4981;50.966;4.842;2023-09-19T09:03:51;17.10;1.00
9885;DHT22;4981;50.966;4.842;2023-09-19T09:06:19;17.70;1.00
9885;DHT22;4981;50.966;4.842;2023-09-19T09:08:47;17.30;1.00
9885;DHT22;4981;50.966;4.842;2023-09-19T09:11:15;17.00;1.00
9885;DHT22;4981;50.966;4.842;2023-09-19T09:13:43;16.80;1.00
9885;DHT22;4981;50.966;4.842;2023-09-19T09:16:11;17.10;1.00
9885;DHT22;4981;50.966;4.842;2023-09-19T09:18:39;17.30;1.00
9885;DHT22;4981;50.966;4.842;2023-09-19T09:21:07;17.60;1.00
9885;DHT22;4981;50.966;4.842;2023-09-19T09:23:35;17.40;1.00
9885;DHT22;4981;50.966;4.842;2023-09-19T09:26:02;17.10;1.00
9885;DHT22;4981;50.966;4.842;2023-09-19T09:28:31;17.30;1.00
9885;DHT22;4981;50.966;4.842;2023-09-19T09:30:59;17.40;1.00
9885;DHT22;4981;50.966;4.842;2023-09-19T09:33:29;17.40;1.00
9885;DHT22;4981;50.966;4.842;2023-09-19T09:35:58;17.40;1.00
9885;DHT22;4981;50.966;4.842;2023-09-19T09:38:29;17.30;1.00
9885;DHT22;4981;50.966;4.842;2023-09-19T09:40:58;17.40;1.00
9885;DHT22;4981;50.966;4.842;2023-09-19T09:43:31;17.60;1.00
9885;DHT22;4981;50.966;4.842;2023-09-19T09:46:14;17.90;1.00
9885;DHT22;4981;50.966;4.842;2023-09-19T09:49:10;17.80;1.00
9885;DHT22;4981;50.966;4.842;2023-09-19T09:51:58;18.00;1.00
9885;DHT22;4981;50.966;4.842;2023-09-19T09:54:28;18.00;1.00
9885;DHT22;4981;50.966;4.842;2023-09-19T09:57:02;18.30;1.00
9885;DHT22;4981;50.966;4.842;2023-09-19T09:59:50;18.30;1.00
9885;DHT22;4981;50.966;4.842;2023-09-19T10:02:25;18.20;1.00
9885;DHT22;4981;50.966;4.842;2023-09-19T10:04:55;17.90;1.00
9885;DHT22;4981;50.966;4.842;2023-09-19T10:07:40;18.00;1.00
9885;DHT22;4981;50.966;4.842;2023-09-19T10:10:15;18.00;1.00
9885;DHT22;4981;50.966;4.842;2023-09-19T10:13:03;17.70;1.00
9885;DHT22;4981;50.966;4.842;2023-09-19T10:15:34;17.60;1.00
9885;DHT22;4981;50.966;4.842;2023-09-19T10:18:04;17.80;1.00
9885;DHT22;4981;50.966;4.842;2023-09-19T10:20:32;17.70;1.00
9885;DHT22;4981;50.966;4.842;2023-09-19T10:23:03;17.80;1.00
9885;DHT22;4981;50.966;4.842;2023-09-19T10:25:37;18.00;1.00
9885;DHT22;4981;50.966;4.842;2023-09-19T10:28:06;18.30;1.00
9885;DHT22;4981;50.966;4.842;2023-09-19T10:30:37;18.00;1.00
9885;DHT22;4981;50.966;4.842;2023-09-19T10:33:11;18.00;1.00
9885;DHT22;4981;50.966;4.842;2023-09-19T10:35:39;18.30;1.00
9885;DHT22;4981;50.966;4.842;2023-09-19T10:38:07;18.20;1.00
9885;DHT22;4981;50.966;4.842;2023-09-19T10:40:38;18.20;1.00
9885;DHT22;4981;50.966;4.842;2023-09-19T10:43:11;18.50;1.00
9885;DHT22;4981;50.966;4.842;2023-09-19T10:45:40;18.40;1.00
9885;DHT22;4981;50.966;4.842;2023-09-19T10:48:08;18.40;1.00
9885;DHT22;4981;50.966;4.842;2023-09-19T10:50:41;18.50;1.00
9885;DHT22;4981;50.966;4.842;2023-09-19T10:53:12;18.40;1.00
9885;DHT22;4981;50.966;4.842;2023-09-19T10:55:49;18.30;1.00
9885;DHT22;4981;50.966;4.842;2023-09-19T10:58:25;18.20;1.00
9885;DHT22;4981;50.966;4.842;2023-09-19T11:00:55;18.70;1.00
9885;DHT22;4981;50.966;4.842;2023-09-19T11:03:23;18.40;1.00
9885;DHT22;4981;50.966;4.842;2023-09-19T11:06:03;18.80;1.00
9885;DHT22;4981;50.966;4.842;2023-09-19T11:09:01;19.40;1.00
9885;DHT22;4981;50.966;4.842;2023-09-19T11:11:50;19.40;1.00
9885;DHT22;4981;50.966;4.842;2023-09-19T11:14:37;19.80;1.00
9885;DHT22;4981;50.966;4.842;2023-09-19T11:17:32;19.10;1.00
9885;DHT22;4981;50.966;4.842;2023-09-19T11:20:21;19.60;1.00
9885;DHT22;4981;50.966;4.842;2023-09-19T11:23:28;19.30;1.00
9885;DHT22;4981;50.966;4.842;2023-09-19T11:25:56;19.00;1.00
9885;DHT22;4981;50.966;4.842;2023-09-19T11:28:32;19.90;1.00
9885;DHT22;4981;50.966;4.842;2023-09-19T11:37:02;19.80;1.00
9885;DHT22;4981;50.966;4.842;2023-09-19T11:39:30;20.10;1.00
9885;DHT22;4981;50.966;4.842;2023-09-19T11:41:58;19.70;1.00
9885;DHT22;4981;50.966;4.842;2023-09-19T11:44:34;20.20;1.00
9885;DHT22;4981;50.966;4.842;2023-09-19T11:47:04;20.10;1.00
9885;DHT22;4981;50.966;4.842;2023-09-19T11:49:33;19.80;1.00
9885;DHT22;4981;50.966;4.842;2023-09-19T11:52:03;20.70;1.00
9885;DHT22;4981;50.966;4.842;2023-09-19T11:54:32;20.30;1.00
9885;DHT22;4981;50.966;4.842;2023-09-19T11:57:00;20.50;1.00
9885;DHT22;4981;50.966;4.842;2023-09-19T11:59:29;20.40;1.00
9885;DHT22;4981;50.966;4.842;2023-09-19T12:02:00;21.10;1.00
9885;DHT22;4981;50.966;4.842;2023-09-19T12:04:34;22.30;1.00
9885;DHT22;4981;50.966;4.842;2023-09-19T12:07:07;21.00;1.00
9885;DHT22;4981;50.966;4.842;2023-09-19T12:09:39;20.50;1.00
9885;DHT22;4981;50.966;4.842;2023-09-19T12:12:07;19.90;1.00
9885;DHT22;4981;50.966;4.842;2023-09-19T12:14:35;20.30;1.00
9885;DHT22;4981;50.966;4.842;2023-09-19T12:17:03;20.80;1.00
9885;DHT22;4981;50.966;4.842;2023-09-19T12:19:30;21.60;1.00
9885;DHT22;4981;50.966;4.842;2023-09-19T12:21:58;21.20;1.00
9885;DHT22;4981;50.966;4.842;2023-09-19T12:24:26;20.80;1.00
9885;DHT22;4981;50.966;4.842;2023-09-19T12:27:00;20.50;1.00
9885;DHT22;4981;50.966;4.842;2023-09-19T12:29:30;21.90;1.00
9885;DHT22;4981;50.966;4.842;2023-09-19T12:31:58;22.50;1.00
9885;DHT22;4981;50.966;4.842;2023-09-19T12:34:31;22.20;1.00
9885;DHT22;4981;50.966;4.842;2023-09-19T12:37:07;21.20;1.00
9885;DHT22;4981;50.966;4.842;2023-09-19T12:39:47;21.30;1.00
9885;DHT22;4981;50.966;4.842;2023-09-19T12:42:18;21.80;1.00
9885;DHT22;4981;50.966;4.842;2023-09-19T12:44:46;21.50;1.00
9885;DHT22;4981;50.966;4.842;2023-09-19T12:47:15;21.80;1.00
9885;DHT22;4981;50.966;4.842;2023-09-19T12:50:09;21.30;1.00
9885;DHT22;4981;50.966;4.842;2023-09-19T12:52:45;21.30;1.00
9885;DHT22;4981;50.966;4.842;2023-09-19T12:55:23;22.20;1.00
9885;DHT22;4981;50.966;4.842;2023-09-19T12:58:08;23.20;1.00
9885;DHT22;4981;50.966;4.842;2023-09-19T13:00:37;22.90;1.00
9885;DHT22;4981;50.966;4.842;2023-09-19T13:03:17;22.20;1.00
9885;DHT22;4981;50.966;4.842;2023-09-19T13:05:51;21.80;1.00
9885;DHT22;4981;50.966;4.842;2023-09-19T13:08:24;23.00;1.00
9885;DHT22;4981;50.966;4.842;2023-09-19T13:13:43;23.40;1.00
9885;DHT22;4981;50.966;4.842;2023-09-19T13:16:11;23.10;1.00
9885;DHT22;4981;50.966;4.842;2023-09-19T13:18:46;23.30;1.00
9885;DHT22;4981;50.966;4.842;2023-09-19T13:21:27;22.80;1.00
9885;DHT22;4981;50.966;4.842;2023-09-19T13:23:55;22.90;1.00
9885;DHT22;4981;50.966;4.842;2023-09-19T13:26:25;22.30;1.00
9885;DHT22;4981;50.966;4.842;2023-09-19T13:28:53;22.00;1.00
9885;DHT22;4981;50.966;4.842;2023-09-19T13:31:20;21.60;1.00
9885;DHT22;4981;50.966;4.842;2023-09-19T13:33:49;21.90;1.00
9885;DHT22;4981;50.966;4.842;2023-09-19T13:36:19;20.30;1.00
9885;DHT22;4981;50.966;4.842;2023-09-19T13:38:46;21.00;1.00
9885;DHT22;4981;50.966;4.842;2023-09-19T13:41:15;20.40;1.00
9885;DHT22;4981;50.966;4.842;2023-09-19T13:43:42;21.10;1.00
9885;DHT22;4981;50.966;4.842;2023-09-19T13:46:14;20.30;1.00
9885;DHT22;4981;50.966;4.842;2023-09-19T13:48:42;20.00;1.00
9885;DHT22;4981;50.966;4.842;2023-09-19T13:51:09;20.10;1.00
9885;DHT22;4981;50.966;4.842;2023-09-19T13:53:37;20.30;1.00
9885;DHT22;4981;50.966;4.842;2023-09-19T13:56:04;20.10;1.00
9885;DHT22;4981;50.966;4.842;2023-09-19T13:58:32;20.30;1.00
9885;DHT22;4981;50.966;4.842;2023-09-19T14:00:59;20.70;1.00
9885;DHT22;4981;50.966;4.842;2023-09-19T14:03:26;20.60;1.00
9885;DHT22;4981;50.966;4.842;2023-09-19T14:05:54;21.00;1.00
9885;DHT22;4981;50.966;4.842;2023-09-19T14:08:21;20.80;1.00
9885;DHT22;4981;50.966;4.842;2023-09-19T14:10:50;21.10;1.00
9885;DHT22;4981;50.966;4.842;2023-09-19T14:13:17;21.40;1.00
9885;DHT22;4981;50.966;4.842;2023-09-19T14:15:46;21.10;1.00
9885;DHT22;4981;50.966;4.842;2023-09-19T14:18:13;21.50;1.00
9885;DHT22;4981;50.966;4.842;2023-09-19T14:20:40;21.20;1.00
9885;DHT22;4981;50.966;4.842;2023-09-19T14:23:07;21.80;1.00
9885;DHT22;4981;50.966;4.842;2023-09-19T14:25:34;21.90;1.00
9885;DHT22;4981;50.966;4.842;2023-09-19T14:28:03;21.80;1.00
9885;DHT22;4981;50.966;4.842;2023-09-19T14:30:32;21.70;1.00
9885;DHT22;4981;50.966;4.842;2023-09-19T14:32:59;21.90;1.00
9885;DHT22;4981;50.966;4.842;2023-09-19T14:35:26;22.30;1.00
9885;DHT22;4981;50.966;4.842;2023-09-19T14:37:53;22.90;1.00
9885;DHT22;4981;50.966;4.842;2023-09-19T14:40:20;22.10;1.00
9885;DHT22;4981;50.966;4.842;2023-09-19T14:42:48;22.10;1.00
9885;DHT22;4981;50.966;4.842;2023-09-19T14:45:17;22.40;1.00
9885;DHT22;4981;50.966;4.842;2023-09-19T14:47:45;22.10;1.00
9885;DHT22;4981;50.966;4.842;2023-09-19T14:50:12;22.40;1.00
9885;DHT22;4981;50.966;4.842;2023-09-19T14:52:40;22.60;1.00
9885;DHT22;4981;50.966;4.842;2023-09-19T14:55:08;22.50;1.00
9885;DHT22;4981;50.966;4.842;2023-09-19T14:57:41;22.40;1.00
9885;DHT22;4981;50.966;4.842;2023-09-19T15:00:12;22.90;1.00
9885;DHT22;4981;50.966;4.842;2023-09-19T15:02:40;22.30;1.00
9885;DHT22;4981;50.966;4.842;2023-09-19T15:05:08;22.40;1.00
9885;DHT22;4981;50.966;4.842;2023-09-19T15:07:35;22.80;1.00
9885;DHT22;4981;50.966;4.842;2023-09-19T15:10:04;23.10;1.00
9885;DHT22;4981;50.966;4.842;2023-09-19T15:12:35;23.10;1.00
9885;DHT22;4981;50.966;4.842;2023-09-19T15:15:04;23.10;1.00
9885;DHT22;4981;50.966;4.842;2023-09-19T15:17:32;23.20;1.00
9885;DHT22;4981;50.966;4.842;2023-09-19T15:20:01;22.70;1.00
9885;DHT22;4981;50.966;4.842;2023-09-19T15:22:32;22.80;1.00
9885;DHT22;4981;50.966;4.842;2023-09-19T15:24:59;22.50;1.00
9885;DHT22;4981;50.966;4.842;2023-09-19T15:27:27;22.40;1.00
9885;DHT22;4981;50.966;4.842;2023-09-19T15:29:56;22.00;1.00
9885;DHT22;4981;50.966;4.842;2023-09-19T15:32:23;22.20;1.00
9885;DHT22;4981;50.966;4.842;2023-09-19T15:34:50;22.30;1.00
9885;DHT22;4981;50.966;4.842;2023-09-19T15:37:19;22.50;1.00
9885;DHT22;4981;50.966;4.842;2023-09-19T15:39:46;22.70;1.00
9885;DHT22;4981;50.966;4.842;2023-09-19T15:42:12;22.60;1.00
9885;DHT22;4981;50.966;4.842;2023-09-19T15:44:42;22.60;1.00
9885;DHT22;4981;50.966;4.842;2023-09-19T15:47:10;22.70;1.00
9885;DHT22;4981;50.966;4.842;2023-09-19T15:49:37;22.90;1.00
9885;DHT22;4981;50.966;4.842;2023-09-19T15:52:04;22.00;1.00
9885;DHT22;4981;50.966;4.842;2023-09-19T15:54:32;21.20;1.00
9885;DHT22;4981;50.966;4.842;2023-09-19T15:57:01;20.60;1.00
9885;DHT22;4981;50.966;4.842;2023-09-19T15:59:28;20.50;1.00
9885;DHT22;4981;50.966;4.842;2023-09-19T16:01:56;19.90;1.00
9885;DHT22;4981;50.966;4.842;2023-09-19T16:04:23;20.20;1.00
9885;DHT22;4981;50.966;4.842;2023-09-19T16:06:51;20.20;1.00
9885;DHT22;4981;50.966;4.842;2023-09-19T16:09:18;19.80;1.00
9885;DHT22;4981;50.966;4.842;2023-09-19T16:11:46;19.70;1.00
9885;DHT22;4981;50.966;4.842;2023-09-19T16:14:14;20.00;1.00
9885;DHT22;4981;50.966;4.842;2023-09-19T16:16:42;19.90;1.00
9885;DHT22;4981;50.966;4.842;2023-09-19T16:19:09;20.00;1.00
9885;DHT22;4981;50.966;4.842;2023-09-19T16:21:37;20.00;1.00
9885;DHT22;4981;50.966;4.842;2023-09-19T16:24:06;19.70;1.00
9885;DHT22;4981;50.966;4.842;2023-09-19T16:26:35;19.50;1.00
9885;DHT22;4981;50.966;4.842;2023-09-19T16:29:04;19.70;1.00
9885;DHT22;4981;50.966;4.842;2023-09-19T16:31:31;19.50;1.00
9885;DHT22;4981;50.966;4.842;2023-09-19T16:33:59;19.60;1.00
9885;DHT22;4981;50.966;4.842;2023-09-19T16:36:27;19.70;1.00
9885;DHT22;4981;50.966;4.842;2023-09-19T16:38:54;19.40;1.00
9885;DHT22;4981;50.966;4.842;2023-09-19T16:41:22;19.40;1.00
9885;DHT22;4981;50.966;4.842;2023-09-19T16:43:49;19.40;1.00
9885;DHT22;4981;50.966;4.842;2023-09-19T16:46:17;19.40;1.00
9885;DHT22;4981;50.966;4.842;2023-09-19T16:48:45;19.60;1.00
9885;DHT22;4981;50.966;4.842;2023-09-19T16:51:14;19.70;1.00
9885;DHT22;4981;50.966;4.842;2023-09-19T16:53:42;19.70;1.00
9885;DHT22;4981;50.966;4.842;2023-09-19T16:56:12;19.70;1.00